Time;durP1;ratioP1;P1;durP2;ratioP2;P2;SDS_P1;SDS_P2;PMS_P1;PMS_P2;Temp;Humidity;BMP_temperature;BMP_pressure;BME280_temperature;BME280_humidity;BME280_pressure;Samples;Min_cycle;Max_cycle;Signal;HPM_P1;HPM_P2
2021/11/25 00:01:50;;;;;;;;;;;8.10;99.90;;;;;;5055733;28;19913;-76
2021/11/25 00:04:18;;;;;;;;;;;8.20;99.90;;;;;;5055781;28;19909;-76
2021/11/25 00:06:44;;;;;;;;;;;8.10;99.90;;;;;;5055635;28;19943;-76
2021/11/25 00:09:10;;;;;;;;;;;8.10;99.90;;;;;;5055307;28;19925;-77
2021/11/25 00:11:35;;;;;;;;;;;8.00;99.90;;;;;;5055441;28;19916;-76
2021/11/25 00:14:01;;;;;;;;;;;8.00;99.90;;;;;;5053875;28;19909;-77
2021/11/25 00:16:27;;;;;;;;;;;8.10;99.90;;;;;;5055074;28;20004;-77
2021/11/25 00:18:52;;;;;;;;;;;8.50;99.90;;;;;;5054029;28;19909;-77
2021/11/25 00:21:18;;;;;;;;;;;8.60;99.90;;;;;;5054060;28;20435;-76
2021/11/25 00:23:44;;;;;;;;;;;8.30;99.90;;;;;;5055022;28;19909;-77
2021/11/25 00:26:10;;;;;;;;;;;8.30;99.90;;;;;;5055294;28;19995;-77
2021/11/25 00:28:36;;;;;;;;;;;8.30;99.90;;;;;;5055077;28;19932;-77
2021/11/25 00:31:02;;;;;;;;;;;8.20;99.90;;;;;;5054923;28;20365;-76
2021/11/25 00:33:28;;;;;;;;;;;8.40;99.90;;;;;;5055185;28;19916;-76
2021/11/25 00:35:53;;;;;;;;;;;8.70;99.10;;;;;;5054828;28;19913;-76
2021/11/25 00:38:19;;;;;;;;;;;8.60;98.60;;;;;;5055015;28;19917;-76
2021/11/25 00:40:45;;;;;;;;;;;8.70;98.50;;;;;;5054986;28;19991;-76
2021/11/25 00:43:10;;;;;;;;;;;8.80;98.20;;;;;;5054846;28;20346;-76
2021/11/25 00:45:36;;;;;;;;;;;9.00;97.60;;;;;;5054772;28;20282;-77
2021/11/25 00:48:02;;;;;;;;;;;9.00;97.70;;;;;;5055123;28;20336;-76
2021/11/25 00:50:27;;;;;;;;;;;8.60;98.20;;;;;;5054807;28;19916;-77
2021/11/25 00:52:53;;;;;;;;;;;8.30;99.30;;;;;;5054729;28;19951;-77
2021/11/25 00:55:19;;;;;;;;;;;8.40;99.00;;;;;;5054647;28;19913;-76
2021/11/25 00:57:45;;;;;;;;;;;8.20;99.40;;;;;;5054811;28;20308;-76
2021/11/25 01:00:13;;;;;;;;;;;8.30;99.60;;;;;;5054386;28;19916;-77
2021/11/25 01:02:39;;;;;;;;;;;8.30;99.60;;;;;;5054250;28;19909;-76
2021/11/25 01:05:05;;;;;;;;;;;8.40;99.40;;;;;;5054510;28;19909;-77
2021/11/25 01:07:31;;;;;;;;;;;8.70;98.90;;;;;;5052935;28;20345;-77
2021/11/25 01:09:57;;;;;;;;;;;8.70;99.10;;;;;;5052867;28;19921;-77
2021/11/25 01:12:23;;;;;;;;;;;8.80;98.90;;;;;;5054578;28;19913;-77
2021/11/25 01:14:49;;;;;;;;;;;8.70;98.90;;;;;;5054366;28;19913;-76
2021/11/25 01:17:15;;;;;;;;;;;8.50;99.90;;;;;;5054296;28;19909;-76
2021/11/25 01:19:41;;;;;;;;;;;8.40;99.90;;;;;;5052977;28;19952;-77
2021/11/25 01:22:06;;;;;;;;;;;8.30;99.90;;;;;;5053868;28;19909;-77
2021/11/25 01:24:32;;;;;;;;;;;8.40;99.90;;;;;;5053923;28;20262;-76
2021/11/25 01:26:58;;;;;;;;;;;8.30;99.90;;;;;;5053479;28;19916;-77
2021/11/25 01:29:23;;;;;;;;;;;8.20;99.90;;;;;;5054270;28;19909;-77
2021/11/25 01:31:49;;;;;;;;;;;8.40;99.90;;;;;;5053775;28;19909;-76
2021/11/25 01:34:15;;;;;;;;;;;8.50;99.90;;;;;;5052215;28;20000;-76
2021/11/25 01:36:40;;;;;;;;;;;8.40;99.70;;;;;;5053237;28;20326;-77
2021/11/25 01:39:07;;;;;;;;;;;8.50;99.90;;;;;;5053681;28;20451;-76
2021/11/25 01:41:32;;;;;;;;;;;8.50;99.90;;;;;;5053939;28;20043;-76
2021/11/25 01:43:58;;;;;;;;;;;8.60;99.70;;;;;;5053554;28;19948;-76
2021/11/25 01:46:24;;;;;;;;;;;8.90;99.10;;;;;;5052639;28;19916;-76
2021/11/25 01:48:50;;;;;;;;;;;8.90;98.70;;;;;;5052134;28;19912;-76
2021/11/25 01:51:17;;;;;;;;;;;8.80;98.80;;;;;;5053955;28;19909;-76
2021/11/25 01:53:42;;;;;;;;;;;8.60;99.30;;;;;;5053761;28;19966;-77
2021/11/25 01:56:09;;;;;;;;;;;8.30;99.90;;;;;;5053491;28;19913;-77
2021/11/25 01:58:35;;;;;;;;;;;8.40;99.90;;;;;;5053478;28;20003;-76
2021/11/25 02:01:01;;;;;;;;;;;8.50;99.90;;;;;;5053176;28;20080;-77
2021/11/25 02:03:27;;;;;;;;;;;8.40;99.90;;;;;;5053878;28;19959;-77
2021/11/25 02:05:53;;;;;;;;;;;8.30;99.90;;;;;;5053454;28;19912;-77
2021/11/25 02:08:19;;;;;;;;;;;8.10;99.90;;;;;;5054032;28;19909;-77
2021/11/25 02:10:46;;;;;;;;;;;8.10;99.90;;;;;;5053062;28;19921;-77
2021/11/25 02:13:12;;;;;;;;;;;8.00;99.90;;;;;;5053523;28;19958;-77
2021/11/25 02:15:37;;;;;;;;;;;8.10;99.90;;;;;;5053168;28;20007;-75
2021/11/25 02:18:08;;;;;;;;;;;8.30;99.90;;;;;;5053684;28;19916;-76
2021/11/25 02:20:44;;;;;;;;;;;8.20;99.90;;;;;;5052957;28;19909;-77
2021/11/25 02:23:11;;;;;;;;;;;8.30;99.90;;;;;;5053363;28;19928;-77
2021/11/25 02:25:37;;;;;;;;;;;8.30;99.90;;;;;;5051697;28;19909;-76
2021/11/25 02:28:03;;;;;;;;;;;8.20;99.90;;;;;;5052026;28;20388;-76
2021/11/25 02:30:29;;;;;;;;;;;8.20;99.90;;;;;;5053072;28;19909;-77
2021/11/25 02:32:54;;;;;;;;;;;8.20;99.90;;;;;;5053058;28;19970;-77
2021/11/25 02:35:24;;;;;;;;;;;8.20;99.90;;;;;;5051575;28;19916;-77
2021/11/25 02:37:51;;;;;;;;;;;8.10;99.90;;;;;;5054280;28;19913;-77
2021/11/25 02:40:17;;;;;;;;;;;8.20;99.90;;;;;;5056907;28;19909;-77
2021/11/25 02:42:43;;;;;;;;;;;8.20;99.90;;;;;;5057521;28;19916;-77
2021/11/25 02:45:08;;;;;;;;;;;8.10;99.90;;;;;;5057235;28;19996;-77
2021/11/25 02:47:34;;;;;;;;;;;8.20;99.90;;;;;;5055834;28;19916;-77
2021/11/25 02:49:59;;;;;;;;;;;8.50;99.90;;;;;;5057049;28;19913;-76
2021/11/25 02:52:25;;;;;;;;;;;8.70;99.90;;;;;;5057023;28;19932;-76
2021/11/25 02:54:51;;;;;;;;;;;8.60;99.90;;;;;;5056978;28;19948;-77
2021/11/25 02:57:17;;;;;;;;;;;8.60;99.90;;;;;;5056780;28;19974;-77
2021/11/25 02:59:43;;;;;;;;;;;8.50;99.90;;;;;;5056538;28;19909;-77
2021/11/25 03:02:09;;;;;;;;;;;8.50;99.90;;;;;;5056565;28;19916;-77
2021/11/25 03:04:35;;;;;;;;;;;8.50;99.90;;;;;;5056772;28;19911;-76
2021/11/25 03:07:01;;;;;;;;;;;8.40;99.90;;;;;;5056813;28;19959;-77
2021/11/25 03:09:27;;;;;;;;;;;8.50;99.90;;;;;;5056302;28;19924;-76
2021/11/25 03:11:53;;;;;;;;;;;8.60;99.90;;;;;;5056381;28;19975;-76
2021/11/25 03:14:19;;;;;;;;;;;8.70;99.90;;;;;;5057001;28;19959;-77
2021/11/25 03:16:45;;;;;;;;;;;8.70;99.80;;;;;;5056796;28;20454;-76
2021/11/25 03:19:12;;;;;;;;;;;8.60;99.90;;;;;;5056534;28;19909;-77
2021/11/25 03:21:38;;;;;;;;;;;8.80;99.90;;;;;;5056702;28;19912;-77
2021/11/25 03:24:04;;;;;;;;;;;8.80;99.90;;;;;;5054991;28;19955;-76
2021/11/25 03:26:30;;;;;;;;;;;8.60;99.90;;;;;;5056519;28;19912;-76
2021/11/25 03:28:59;;;;;;;;;;;8.60;99.70;;;;;;5056432;28;19909;-76
2021/11/25 03:31:26;;;;;;;;;;;8.70;99.90;;;;;;5054932;28;19916;-77
2021/11/25 03:33:52;;;;;;;;;;;8.80;99.80;;;;;;5056240;28;19951;-76
2021/11/25 03:36:18;;;;;;;;;;;8.80;99.80;;;;;;5054678;28;20281;-76
2021/11/25 03:38:43;;;;;;;;;;;8.50;99.90;;;;;;5055717;28;19909;-77
2021/11/25 03:41:10;;;;;;;;;;;8.40;99.90;;;;;;5055281;28;19908;-76
2021/11/25 03:43:36;;;;;;;;;;;8.50;99.90;;;;;;5056073;28;20312;-76
2021/11/25 03:46:02;;;;;;;;;;;8.60;99.90;;;;;;5056028;28;19909;-77
2021/11/25 03:48:30;;;;;;;;;;;8.30;99.90;;;;;;5056004;28;19986;-77
2021/11/25 03:50:57;;;;;;;;;;;8.10;99.90;;;;;;5054596;28;19909;-75
2021/11/25 03:53:23;;;;;;;;;;;8.20;99.90;;;;;;5055874;28;19909;-76
2021/11/25 03:55:49;;;;;;;;;;;8.20;99.90;;;;;;5055291;28;20419;-76
2021/11/25 03:58:14;;;;;;;;;;;8.20;99.90;;;;;;5055709;28;19916;-76
2021/11/25 04:00:40;;;;;;;;;;;8.40;99.90;;;;;;5055220;28;19920;-76
2021/11/25 04:03:06;;;;;;;;;;;8.20;99.90;;;;;;5055442;28;20400;-77
2021/11/25 04:05:32;;;;;;;;;;;8.30;99.90;;;;;;5055546;28;19909;-77
2021/11/25 04:07:58;;;;;;;;;;;8.30;99.90;;;;;;5055141;28;20392;-76
2021/11/25 04:10:23;;;;;;;;;;;8.10;99.90;;;;;;5055099;28;19921;-77
2021/11/25 04:12:49;;;;;;;;;;;8.00;99.90;;;;;;5054876;28;19909;-76
2021/11/25 04:15:15;;;;;;;;;;;8.20;99.90;;;;;;5055498;28;19959;-76
2021/11/25 04:17:41;;;;;;;;;;;8.10;99.90;;;;;;5053198;28;19956;-76
2021/11/25 04:20:07;;;;;;;;;;;8.10;99.90;;;;;;5053912;28;19997;-75
2021/11/25 04:22:32;;;;;;;;;;;8.20;99.90;;;;;;5054672;28;19962;-76
2021/11/25 04:24:58;;;;;;;;;;;8.30;99.90;;;;;;5053561;28;19944;-77
2021/11/25 04:27:24;;;;;;;;;;;8.40;99.90;;;;;;5055352;28;20273;-78
2021/11/25 04:29:58;;;;;;;;;;;8.30;99.90;;;;;;5054747;28;19912;-77
2021/11/25 04:37:52;;;;;;;;;;;8.30;99.90;;;;;;5054912;28;20010;-77
2021/11/25 04:40:18;;;;;;;;;;;8.50;99.90;;;;;;5054703;28;19913;-76
2021/11/25 04:42:44;;;;;;;;;;;8.40;99.90;;;;;;5055162;28;19909;-76
2021/11/25 04:45:09;;;;;;;;;;;8.20;99.90;;;;;;5054959;28;19913;-77
2021/11/25 04:47:36;;;;;;;;;;;8.20;99.90;;;;;;5054978;28;19909;-77
2021/11/25 04:50:02;;;;;;;;;;;8.20;99.90;;;;;;5054410;28;19931;-76
2021/11/25 04:52:27;;;;;;;;;;;8.40;99.90;;;;;;5053156;28;20385;-77
2021/11/25 04:54:53;;;;;;;;;;;8.60;99.90;;;;;;5054143;28;19913;-76
2021/11/25 04:57:18;;;;;;;;;;;8.50;99.70;;;;;;5054499;28;19909;-76
2021/11/25 04:59:44;;;;;;;;;;;8.30;99.90;;;;;;5054729;28;20300;-76
2021/11/25 05:02:09;;;;;;;;;;;8.30;99.90;;;;;;5053573;28;19921;-76
2021/11/25 05:04:35;;;;;;;;;;;8.30;99.90;;;;;;5054908;28;19962;-76
2021/11/25 05:07:01;;;;;;;;;;;8.30;99.90;;;;;;5054335;28;19909;-76
2021/11/25 05:09:26;;;;;;;;;;;8.30;99.90;;;;;;5054323;28;19921;-77
2021/11/25 05:11:52;;;;;;;;;;;8.50;99.90;;;;;;5054495;28;19916;-76
2021/11/25 05:14:17;;;;;;;;;;;8.40;99.90;;;;;;5054300;28;19915;-77
2021/11/25 05:16:44;;;;;;;;;;;8.60;99.90;;;;;;5054535;28;19916;-76
2021/11/25 05:19:10;;;;;;;;;;;8.60;99.90;;;;;;5054276;28;20008;-76
2021/11/25 05:21:36;;;;;;;;;;;8.70;99.60;;;;;;5054270;28;19944;-76
2021/11/25 05:24:02;;;;;;;;;;;8.70;99.60;;;;;;5054192;28;19909;-76
2021/11/25 05:26:28;;;;;;;;;;;8.50;99.90;;;;;;5054035;28;19913;-76
2021/11/25 05:28:54;;;;;;;;;;;8.40;99.90;;;;;;5053739;28;20003;-77
2021/11/25 05:31:20;;;;;;;;;;;8.30;99.90;;;;;;5053444;28;20364;-76
2021/11/25 05:33:46;;;;;;;;;;;8.50;99.90;;;;;;5053915;28;20385;-76
2021/11/25 05:36:11;;;;;;;;;;;8.60;99.90;;;;;;5052412;28;19913;-77
2021/11/25 05:38:37;;;;;;;;;;;8.70;99.80;;;;;;5053829;28;19916;-77
2021/11/25 05:41:03;;;;;;;;;;;8.80;99.50;;;;;;5053076;28;19909;-76
2021/11/25 05:43:28;;;;;;;;;;;8.80;99.30;;;;;;5053307;28;19912;-76
2021/11/25 05:45:54;;;;;;;;;;;8.60;99.70;;;;;;5053356;28;19908;-77
2021/11/25 05:48:22;;;;;;;;;;;8.70;99.90;;;;;;5053403;28;19919;-77
2021/11/25 05:50:47;;;;;;;;;;;8.70;99.80;;;;;;5053737;28;19909;-77
2021/11/25 05:53:18;;;;;;;;;;;8.60;99.90;;;;;;5053401;28;20274;-76
2021/11/25 05:55:43;;;;;;;;;;;8.30;99.90;;;;;;5051621;28;19920;-76
2021/11/25 05:58:09;;;;;;;;;;;8.30;99.90;;;;;;5053639;28;19909;-77
2021/11/25 06:00:34;;;;;;;;;;;8.50;99.90;;;;;;5053428;28;19959;-76
2021/11/25 06:03:00;;;;;;;;;;;8.70;99.90;;;;;;5053227;28;19916;-77
2021/11/25 06:05:27;;;;;;;;;;;8.60;99.90;;;;;;5053291;28;20365;-77
2021/11/25 06:07:53;;;;;;;;;;;8.60;99.90;;;;;;5051844;28;19913;-76
2021/11/25 06:10:20;;;;;;;;;;;8.30;99.90;;;;;;5053278;28;19928;-76
2021/11/25 06:12:46;;;;;;;;;;;8.20;99.90;;;;;;5052936;28;20369;-77
2021/11/25 06:15:11;;;;;;;;;;;8.10;99.90;;;;;;5051293;28;19966;-76
2021/11/25 06:17:37;;;;;;;;;;;8.10;99.90;;;;;;5053402;28;19999;-76
2021/11/25 06:20:10;;;;;;;;;;;8.00;99.90;;;;;;5053636;28;19997;-77
2021/11/25 06:22:36;;;;;;;;;;;8.00;99.90;;;;;;5053723;28;19909;-76
2021/11/25 06:25:02;;;;;;;;;;;8.10;99.90;;;;;;5053527;28;20280;-77
2021/11/25 06:27:28;;;;;;;;;;;8.10;99.90;;;;;;5051956;28;19916;-77
2021/11/25 06:29:53;;;;;;;;;;;8.30;99.90;;;;;;5053382;28;19909;-76
2021/11/25 06:32:19;;;;;;;;;;;8.50;99.90;;;;;;5051949;28;19931;-76
2021/11/25 06:34:44;;;;;;;;;;;8.60;99.90;;;;;;5053348;28;20400;-77
2021/11/25 06:37:10;;;;;;;;;;;8.70;99.90;;;;;;5053441;28;19919;-76
2021/11/25 06:39:36;;;;;;;;;;;8.70;99.90;;;;;;5051993;28;19915;-76
2021/11/25 06:42:01;;;;;;;;;;;8.70;99.90;;;;;;5053383;28;19953;-76
2021/11/25 06:44:27;;;;;;;;;;;8.30;99.90;;;;;;5052048;28;20328;-76
2021/11/25 06:46:52;;;;;;;;;;;8.10;99.90;;;;;;5053552;28;19908;-76
2021/11/25 06:49:18;;;;;;;;;;;8.30;99.90;;;;;;5053335;28;20361;-77
2021/11/25 06:51:44;;;;;;;;;;;8.40;99.90;;;;;;5053236;28;19915;-76
2021/11/25 06:54:09;;;;;;;;;;;8.60;99.90;;;;;;5053193;28;19912;-77
2021/11/25 06:56:35;;;;;;;;;;;8.60;99.90;;;;;;5053114;28;20296;-76
2021/11/25 06:59:00;;;;;;;;;;;8.40;99.90;;;;;;5053242;28;19909;-77
2021/11/25 07:01:26;;;;;;;;;;;8.30;99.90;;;;;;5053177;28;20442;-76
2021/11/25 07:03:52;;;;;;;;;;;8.20;99.90;;;;;;5051708;28;19908;-76
2021/11/25 07:06:17;;;;;;;;;;;8.30;99.90;;;;;;5053098;28;20335;-76
2021/11/25 07:08:43;;;;;;;;;;;8.40;99.90;;;;;;5052955;28;19909;-77
2021/11/25 07:11:08;;;;;;;;;;;8.60;99.90;;;;;;5053284;28;19913;-76
2021/11/25 07:13:34;;;;;;;;;;;8.70;99.90;;;;;;5053061;28;19909;-76
2021/11/25 07:16:00;;;;;;;;;;;8.80;99.90;;;;;;5052968;28;20380;-77
2021/11/25 07:18:25;;;;;;;;;;;8.70;99.90;;;;;;5053430;28;20388;-77
2021/11/25 07:20:51;;;;;;;;;;;8.60;99.90;;;;;;5053011;28;19947;-77
2021/11/25 07:23:17;;;;;;;;;;;8.50;99.90;;;;;;5053047;28;19909;-76
2021/11/25 07:25:42;;;;;;;;;;;8.60;99.90;;;;;;5055534;28;20377;-76
2021/11/25 07:28:08;;;;;;;;;;;8.80;99.90;;;;;;5056945;28;19916;-77
2021/11/25 07:30:33;;;;;;;;;;;8.80;99.90;;;;;;5056793;28;19908;-77
2021/11/25 07:32:59;;;;;;;;;;;8.60;99.90;;;;;;5056509;28;20365;-76
2021/11/25 07:35:25;;;;;;;;;;;8.60;99.90;;;;;;5055052;28;19998;-77
2021/11/25 07:37:52;;;;;;;;;;;8.60;99.90;;;;;;5056398;28;20013;-78
2021/11/25 07:40:18;;;;;;;;;;;8.50;99.90;;;;;;5056263;28;19909;-76
2021/11/25 07:42:44;;;;;;;;;;;8.20;99.90;;;;;;5056331;28;19913;-77
2021/11/25 07:45:09;;;;;;;;;;;8.10;99.90;;;;;;5056356;28;20433;-76
2021/11/25 07:47:37;;;;;;;;;;;8.40;99.90;;;;;;5056639;28;19909;-77
2021/11/25 07:50:10;;;;;;;;;;;8.60;99.90;;;;;;5054820;28;20353;-77
2021/11/25 07:52:36;;;;;;;;;;;8.60;99.90;;;;;;5056216;28;19909;-76
2021/11/25 07:55:03;;;;;;;;;;;8.60;99.90;;;;;;5055996;28;19913;-76
2021/11/25 07:57:28;;;;;;;;;;;8.50;99.90;;;;;;5056038;28;19941;-77
2021/11/25 07:59:54;;;;;;;;;;;8.30;99.90;;;;;;5054771;28;19962;-77
2021/11/25 08:02:20;;;;;;;;;;;8.40;99.90;;;;;;5054769;28;19920;-76
2021/11/25 08:04:46;;;;;;;;;;;8.50;99.90;;;;;;5054597;28;19916;-76
2021/11/25 08:07:12;;;;;;;;;;;8.40;99.90;;;;;;5056124;28;19997;-76
2021/11/25 08:09:38;;;;;;;;;;;8.40;99.90;;;;;;5055583;28;19959;-76
2021/11/25 08:12:04;;;;;;;;;;;8.50;99.90;;;;;;5055764;28;19909;-76
2021/11/25 08:14:29;;;;;;;;;;;8.60;99.90;;;;;;5055565;28;19909;-77
2021/11/25 08:16:58;;;;;;;;;;;8.70;99.90;;;;;;5055773;28;20003;-76
2021/11/25 08:19:24;;;;;;;;;;;8.80;99.90;;;;;;5055841;28;19915;-77
2021/11/25 08:21:50;;;;;;;;;;;8.90;99.90;;;;;;5055927;28;20377;-77
2021/11/25 08:24:15;;;;;;;;;;;8.60;99.90;;;;;;5055536;28;19916;-77
2021/11/25 08:26:41;;;;;;;;;;;8.50;99.90;;;;;;5054203;28;20392;-77
2021/11/25 08:29:07;;;;;;;;;;;8.50;99.90;;;;;;5055469;28;19958;-77
2021/11/25 08:31:32;;;;;;;;;;;8.60;99.90;;;;;;5055703;28;19924;-77
2021/11/25 08:33:58;;;;;;;;;;;8.80;99.90;;;;;;5055170;28;19944;-77
2021/11/25 08:36:23;;;;;;;;;;;8.80;99.90;;;;;;5053775;28;19920;-77
2021/11/25 08:38:49;;;;;;;;;;;8.90;99.90;;;;;;5055754;28;19908;-77
2021/11/25 08:41:15;;;;;;;;;;;9.00;99.90;;;;;;5055219;28;19915;-76
2021/11/25 08:43:40;;;;;;;;;;;9.00;99.90;;;;;;5055157;28;19913;-76
2021/11/25 08:46:06;;;;;;;;;;;9.00;99.90;;;;;;5055191;28;19949;-76
2021/11/25 08:48:32;;;;;;;;;;;9.10;99.90;;;;;;5055010;28;19956;-77
2021/11/25 08:50:58;;;;;;;;;;;9.10;99.90;;;;;;5054354;28;20305;-76
2021/11/25 08:53:24;;;;;;;;;;;9.10;99.90;;;;;;5053729;28;19991;-76
2021/11/25 08:55:50;;;;;;;;;;;9.00;99.90;;;;;;5055082;28;20011;-77
2021/11/25 08:58:16;;;;;;;;;;;8.80;99.90;;;;;;5053646;28;19948;-76
2021/11/25 09:00:41;;;;;;;;;;;8.80;99.90;;;;;;5054891;28;19915;-77
2021/11/25 09:03:07;;;;;;;;;;;8.80;99.90;;;;;;5054859;28;19909;-76
2021/11/25 09:05:33;;;;;;;;;;;8.90;99.90;;;;;;5055091;28;19994;-77
2021/11/25 09:07:59;;;;;;;;;;;9.30;99.90;;;;;;5054871;28;19909;-77
2021/11/25 09:10:25;;;;;;;;;;;9.30;99.90;;;;;;5054569;28;19925;-76
2021/11/25 09:12:50;;;;;;;;;;;9.30;99.90;;;;;;5054599;28;19928;-76
2021/11/25 09:15:16;;;;;;;;;;;9.20;99.90;;;;;;5054508;28;19913;-77
2021/11/25 09:17:42;;;;;;;;;;;8.90;99.90;;;;;;5054692;28;19959;-76
2021/11/25 09:20:07;;;;;;;;;;;8.90;99.90;;;;;;5054669;28;19923;-76
2021/11/25 09:22:33;;;;;;;;;;;9.10;99.90;;;;;;5053114;28;19916;-76
2021/11/25 09:24:59;;;;;;;;;;;9.10;99.90;;;;;;5054403;28;20370;-77
2021/11/25 09:27:24;;;;;;;;;;;9.30;99.90;;;;;;5054531;28;19909;-76
2021/11/25 09:29:50;;;;;;;;;;;9.60;99.90;;;;;;5054388;28;19982;-76
2021/11/25 09:32:16;;;;;;;;;;;10.00;99.90;;;;;;5054269;28;19992;-77
2021/11/25 09:34:41;;;;;;;;;;;10.40;99.90;;;;;;5054186;28;20332;-77
2021/11/25 09:37:07;;;;;;;;;;;10.60;99.90;;;;;;5054177;28;19916;-77
2021/11/25 09:39:33;;;;;;;;;;;10.60;99.90;;;;;;5054207;28;20387;-77
2021/11/25 09:41:58;;;;;;;;;;;10.60;99.90;;;;;;5054125;28;19987;-76
2021/11/25 09:44:24;;;;;;;;;;;10.60;99.90;;;;;;5054031;28;19995;-76
2021/11/25 09:46:55;;;;;;;;;;;10.70;99.90;;;;;;5052253;28;19913;-77
2021/11/25 09:49:21;;;;;;;;;;;11.10;99.90;;;;;;5053819;28;19913;-77
2021/11/25 09:51:47;;;;;;;;;;;11.30;99.90;;;;;;5054068;28;19995;-77
2021/11/25 09:54:13;;;;;;;;;;;11.30;99.90;;;;;;5053928;28;19998;-77
2021/11/25 09:56:38;;;;;;;;;;;11.30;99.90;;;;;;5053793;28;20004;-77
2021/11/25 09:59:04;;;;;;;;;;;11.80;99.90;;;;;;5054273;28;19909;-78
2021/11/25 10:01:31;;;;;;;;;;;12.20;99.70;;;;;;5054187;28;19952;-77
2021/11/25 10:03:56;;;;;;;;;;;12.90;98.40;;;;;;5054112;28;19909;-77
2021/11/25 10:06:26;;;;;;;;;;;12.40;97.20;;;;;;5052484;28;20387;-76
2021/11/25 10:08:52;;;;;;;;;;;11.80;98.90;;;;;;5052201;28;19925;-77
2021/11/25 10:11:19;;;;;;;;;;;11.60;99.50;;;;;;5053682;28;19909;-76
2021/11/25 10:13:47;;;;;;;;;;;11.30;99.90;;;;;;5053750;28;19916;-77
2021/11/25 10:16:16;;;;;;;;;;;11.60;99.90;;;;;;5053513;28;19920;-77
2021/11/25 10:18:42;;;;;;;;;;;11.90;99.60;;;;;;5053600;28;20276;-76
2021/11/25 10:21:12;;;;;;;;;;;12.50;98.70;;;;;;5053558;28;19909;-77
2021/11/25 10:23:38;;;;;;;;;;;14.20;94.60;;;;;;5053509;28;20362;-77
2021/11/25 10:26:24;;;;;;;;;;;14.30;92.90;;;;;;5053475;28;19992;-77
2021/11/25 10:28:51;;;;;;;;;;;14.50;93.40;;;;;;5053181;28;19909;-77
2021/11/25 10:31:17;;;;;;;;;;;17.40;89.10;;;;;;5053448;28;19908;-76
2021/11/25 10:33:48;;;;;;;;;;;16.60;83.80;;;;;;5053402;28;20003;-77
2021/11/25 10:36:27;;;;;;;;;;;16.80;84.00;;;;;;5053463;28;19913;-77
2021/11/25 10:39:13;;;;;;;;;;;18.20;78.50;;;;;;5051816;28;19915;-78
2021/11/25 10:41:40;;;;;;;;;;;16.50;80.90;;;;;;5051883;28;19916;-77
2021/11/25 10:44:12;;;;;;;;;;;15.20;85.80;;;;;;5052054;28;19917;-78
2021/11/25 10:46:49;;;;;;;;;;;14.70;88.20;;;;;;5053322;28;19915;-77
2021/11/25 10:49:15;;;;;;;;;;;13.80;90.70;;;;;;5051818;28;20383;-76
2021/11/25 10:51:42;;;;;;;;;;;13.30;92.00;;;;;;5053426;28;20347;-76
2021/11/25 10:54:12;;;;;;;;;;;13.30;92.70;;;;;;5053311;28;20288;-76
2021/11/25 10:56:40;;;;;;;;;;;13.40;92.90;;;;;;5053167;28;20321;-77
2021/11/25 10:59:07;;;;;;;;;;;13.20;92.60;;;;;;5053572;28;20369;-76
2021/11/25 11:01:38;;;;;;;;;;;13.30;93.30;;;;;;5057091;28;19908;-78
2021/11/25 11:04:04;;;;;;;;;;;15.70;87.40;;;;;;5056950;28;19909;-76
2021/11/25 11:06:31;;;;;;;;;;;18.00;79.50;;;;;;5057040;28;20424;-77
2021/11/25 11:08:57;;;;;;;;;;;18.60;76.20;;;;;;5056742;28;19931;-77
2021/11/25 11:11:23;;;;;;;;;;;19.20;72.00;;;;;;5055396;28;19912;-78
2021/11/25 11:14:27;;;;;;;;;;;18.10;73.90;;;;;;5057135;28;19909;-78
2021/11/25 11:17:21;;;;;;;;;;;20.30;71.00;;;;;;5057052;28;19916;-78
2021/11/25 11:20:06;;;;;;;;;;;20.50;69.10;;;;;;5056834;28;19909;-77
2021/11/25 11:22:32;;;;;;;;;;;20.20;65.50;;;;;;5056659;28;19908;-77
2021/11/25 11:24:58;;;;;;;;;;;19.80;66.90;;;;;;5056670;28;20066;-78
2021/11/25 11:27:23;;;;;;;;;;;19.60;66.70;;;;;;5056622;28;20381;-77
2021/11/25 11:29:50;;;;;;;;;;;19.30;69.20;;;;;;5056513;28;19909;-77
2021/11/25 11:32:16;;;;;;;;;;;19.10;69.30;;;;;;5056700;28;19963;-78
2021/11/25 11:34:42;;;;;;;;;;;17.90;70.40;;;;;;5056530;28;19909;-77
2021/11/25 11:37:12;;;;;;;;;;;17.50;73.10;;;;;;5055206;28;20289;-77
2021/11/25 11:39:38;;;;;;;;;;;17.00;73.60;;;;;;5056340;28;19909;-77
2021/11/25 11:42:06;;;;;;;;;;;16.80;74.20;;;;;;5055117;28;19959;-78
2021/11/25 11:44:32;;;;;;;;;;;16.70;75.20;;;;;;5056416;28;19944;-77
2021/11/25 11:47:00;;;;;;;;;;;17.30;75.00;;;;;;5056521;28;19916;-77
2021/11/25 11:49:26;;;;;;;;;;;17.50;73.80;;;;;;5054932;28;19916;-77
2021/11/25 11:52:03;;;;;;;;;;;17.50;75.00;;;;;;5056164;28;19909;-77
2021/11/25 11:54:38;;;;;;;;;;;17.40;74.50;;;;;;5054793;28;20327;-77
2021/11/25 11:57:04;;;;;;;;;;;17.30;74.60;;;;;;5056255;28;19920;-77
2021/11/25 11:59:38;;;;;;;;;;;17.20;75.20;;;;;;5054734;28;19909;-77
2021/11/25 12:02:04;;;;;;;;;;;17.50;73.60;;;;;;5056073;28;19909;-77
2021/11/25 12:04:39;;;;;;;;;;;16.60;74.50;;;;;;5054641;28;19913;-77
2021/11/25 12:07:23;;;;;;;;;;;16.00;77.20;;;;;;5056263;28;20000;-76
2021/11/25 12:09:53;;;;;;;;;;;16.00;79.00;;;;;;5055499;28;19927;-77
2021/11/25 12:12:18;;;;;;;;;;;16.40;78.60;;;;;;5055661;28;19970;-76
2021/11/25 12:15:10;;;;;;;;;;;15.70;78.10;;;;;;5056028;28;20440;-77
2021/11/25 12:17:37;;;;;;;;;;;15.50;79.00;;;;;;5055194;28;20387;-77
2021/11/25 12:20:39;;;;;;;;;;;15.30;80.30;;;;;;5055653;28;20403;-76
2021/11/25 12:23:06;;;;;;;;;;;15.50;78.80;;;;;;5054437;28;20417;-78
2021/11/25 12:25:34;;;;;;;;;;;15.30;79.40;;;;;;5054224;28;19908;-77
2021/11/25 12:28:20;;;;;;;;;;;14.80;80.70;;;;;;5055624;28;19991;-76
2021/11/25 12:30:53;;;;;;;;;;;14.30;82.60;;;;;;5054186;28;19955;-76
2021/11/25 12:33:46;;;;;;;;;;;14.10;84.60;;;;;;5055664;28;20281;-77
2021/11/25 12:36:30;;;;;;;;;;;13.30;87.90;;;;;;5055088;28;19923;-77
2021/11/25 12:38:56;;;;;;;;;;;13.50;89.00;;;;;;5055362;28;20353;-76
2021/11/25 12:41:22;;;;;;;;;;;13.10;90.60;;;;;;5055294;28;19915;-77
2021/11/25 12:43:47;;;;;;;;;;;12.80;92.80;;;;;;5055390;28;19978;-77
2021/11/25 12:46:15;;;;;;;;;;;12.50;94.70;;;;;;5053896;28;19970;-77
2021/11/25 12:48:42;;;;;;;;;;;12.00;96.70;;;;;;5055115;28;19913;-77
2021/11/25 12:51:12;;;;;;;;;;;11.60;99.80;;;;;;5055518;28;19916;-77
2021/11/25 12:53:38;;;;;;;;;;;11.50;99.70;;;;;;5054981;28;19909;-76
2021/11/25 12:56:13;;;;;;;;;;;11.20;99.90;;;;;;5055290;28;19919;-77
2021/11/25 12:58:38;;;;;;;;;;;10.90;99.90;;;;;;5055044;28;19909;-77
2021/11/25 13:01:05;;;;;;;;;;;11.00;99.90;;;;;;5054845;28;19916;-76
2021/11/25 13:03:32;;;;;;;;;;;11.10;99.90;;;;;;5054823;28;19912;-77
2021/11/25 13:05:59;;;;;;;;;;;11.30;99.90;;;;;;5055137;28;19915;-76
2021/11/25 13:08:43;;;;;;;;;;;11.60;99.90;;;;;;5053306;28;19917;-77
2021/11/25 13:11:19;;;;;;;;;;;11.90;99.90;;;;;;5053116;28;19925;-77
2021/11/25 13:13:47;;;;;;;;;;;12.30;99.90;;;;;;5054864;28;19909;-77
2021/11/25 13:16:14;;;;;;;;;;;12.50;99.90;;;;;;5054676;28;20011;-77
2021/11/25 13:18:42;;;;;;;;;;;12.70;98.70;;;;;;5054549;28;19915;-77
2021/11/25 13:21:29;;;;;;;;;;;13.20;96.20;;;;;;5054034;28;20073;-77
2021/11/25 13:24:04;;;;;;;;;;;12.80;96.60;;;;;;5053953;28;19917;-77
2021/11/25 13:26:59;;;;;;;;;;;13.10;96.20;;;;;;5054574;28;19909;-77
2021/11/25 13:29:33;;;;;;;;;;;13.90;94.80;;;;;;5053571;28;19944;-77
2021/11/25 13:31:59;;;;;;;;;;;14.30;93.00;;;;;;5054262;28;20332;-78
2021/11/25 13:34:24;;;;;;;;;;;15.10;91.90;;;;;;5054363;28;19916;-77
2021/11/25 13:36:55;;;;;;;;;;;15.30;90.50;;;;;;5052845;28;19921;-77
2021/11/25 13:39:26;;;;;;;;;;;15.50;89.50;;;;;;5054252;28;19959;-78
2021/11/25 13:41:56;;;;;;;;;;;14.90;90.00;;;;;;5054118;28;19908;-77
2021/11/25 13:44:22;;;;;;;;;;;14.60;90.70;;;;;;5054116;28;19908;-77
2021/11/25 13:46:49;;;;;;;;;;;14.60;90.50;;;;;;5054003;28;19958;-77
2021/11/25 13:49:16;;;;;;;;;;;14.30;90.90;;;;;;5054178;28;19909;-77
2021/11/25 13:51:42;;;;;;;;;;;14.30;90.90;;;;;;5053926;28;19913;-78
2021/11/25 13:54:09;;;;;;;;;;;14.20;90.80;;;;;;5053887;28;19908;-77
2021/11/25 13:56:35;;;;;;;;;;;13.30;91.50;;;;;;5053841;28;20408;-77
2021/11/25 13:59:02;;;;;;;;;;;12.90;91.50;;;;;;5053838;28;19919;-77
2021/11/25 14:01:32;;;;;;;;;;;12.10;92.70;;;;;;5053968;28;19916;-77
2021/11/25 14:03:59;;;;;;;;;;;11.90;93.50;;;;;;5054007;28;20320;-77
2021/11/25 14:06:26;;;;;;;;;;;11.90;93.90;;;;;;5053815;28;19983;-77
2021/11/25 14:08:52;;;;;;;;;;;11.90;93.50;;;;;;5053530;28;19909;-76
2021/11/25 14:11:18;;;;;;;;;;;11.70;94.00;;;;;;5054106;28;20415;-76
2021/11/25 14:13:44;;;;;;;;;;;11.60;94.00;;;;;;5053741;28;19963;-77
2021/11/25 14:16:20;;;;;;;;;;;11.60;94.10;;;;;;5053529;28;19912;-77
2021/11/25 14:18:46;;;;;;;;;;;11.50;93.80;;;;;;5053609;28;19908;-76
2021/11/25 14:21:12;;;;;;;;;;;11.50;93.70;;;;;;5053693;28;19915;-76
2021/11/25 14:23:38;;;;;;;;;;;11.10;94.50;;;;;;5053454;28;19909;-77
2021/11/25 14:26:42;;;;;;;;;;;11.00;94.80;;;;;;5053390;28;19995;-77
2021/11/25 14:31:57;;;;;;;;;;;10.80;94.90;;;;;;5053517;28;19915;-77
2021/11/25 14:34:36;;;;;;;;;;;11.00;94.90;;;;;;5055955;28;19909;-77
2021/11/25 14:37:12;;;;;;;;;;;10.90;94.90;;;;;;5058030;28;19913;-77